Terminal Aerodrome Forecast
Issued by NWS Wilmington, OH

Current Version | Previous Version | Graphics & Text | Print | Product List | Glossary On
Versions: 1 2 3 4 5 6 7 8 9 10 11 12 13 14 15 16 17 18 19 20 21 22 23
886
FTUS41 KILN 192102 AAB
TAFILN
TAF AMD
KILN 192102Z 1921/2018 23010G20KT P6SM SCT020 BKN035
      TEMPO 1921/1923 2SM -TSRA OVC025CB
     FM192300 23011KT P6SM BKN040
     FM200100 24005KT P6SM FEW030 SCT100
     FM200800 28004KT 3SM BR SCT020 BKN250
     FM201300 24004KT P6SM SCT030 BKN250=

USA.gov is the U.S. government's official web portal to all federal, state and local government web resources and services.